sensor_id;sensor_type;location;lat;lon;timestamp;P1;durP1;ratioP1;P2;durP2;ratioP2
48629;SDS011;34426;52.180;4.462;2024-01-07T00:01:33;13.05;;;9.35;;
48629;SDS011;34426;52.180;4.462;2024-01-07T00:03:58;10.68;;;8.70;;
48629;SDS011;34426;52.180;4.462;2024-01-07T00:06:24;11.00;;;9.00;;
48629;SDS011;34426;52.180;4.462;2024-01-07T00:08:50;11.60;;;9.02;;
48629;SDS011;34426;52.180;4.462;2024-01-07T00:11:16;10.77;;;8.82;;
48629;SDS011;34426;52.180;4.462;2024-01-07T00:13:54;11.10;;;9.25;;
48629;SDS011;34426;52.180;4.462;2024-01-07T00:16:25;10.25;;;9.18;;
48629;SDS011;34426;52.180;4.462;2024-01-07T00:19:02;12.35;;;9.57;;
48629;SDS011;34426;52.180;4.462;2024-01-07T00:21:43;13.18;;;9.07;;
48629;SDS011;34426;52.180;4.462;2024-01-07T00:24:33;13.80;;;9.38;;
48629;SDS011;34426;52.180;4.462;2024-01-07T00:27:21;9.23;;;8.23;;
48629;SDS011;34426;52.180;4.462;2024-01-07T00:29:57;12.35;;;9.75;;
48629;SDS011;34426;52.180;4.462;2024-01-07T00:32:32;9.45;;;8.35;;
48629;SDS011;34426;52.180;4.462;2024-01-07T00:34:58;10.57;;;8.85;;
48629;SDS011;34426;52.180;4.462;2024-01-07T00:37:24;12.52;;;9.20;;
48629;SDS011;34426;52.180;4.462;2024-01-07T00:39:52;10.77;;;8.95;;
48629;SDS011;34426;52.180;4.462;2024-01-07T00:42:18;11.02;;;8.80;;
48629;SDS011;34426;52.180;4.462;2024-01-07T00:44:44;13.30;;;8.77;;
48629;SDS011;34426;52.180;4.462;2024-01-07T00:47:11;11.35;;;8.65;;
48629;SDS011;34426;52.180;4.462;2024-01-07T00:49:37;10.93;;;8.57;;
48629;SDS011;34426;52.180;4.462;2024-01-07T00:52:16;9.48;;;8.27;;
48629;SDS011;34426;52.180;4.462;2024-01-07T00:55:00;11.85;;;8.73;;
48629;SDS011;34426;52.180;4.462;2024-01-07T00:57:36;9.65;;;8.40;;
48629;SDS011;34426;52.180;4.462;2024-01-07T01:00:07;9.98;;;8.57;;
48629;SDS011;34426;52.180;4.462;2024-01-07T01:02:57;10.48;;;8.95;;
48629;SDS011;34426;52.180;4.462;2024-01-07T01:08:32;10.60;;;8.57;;
48629;SDS011;34426;52.180;4.462;2024-01-07T01:11:11;9.90;;;8.52;;
48629;SDS011;34426;52.180;4.462;2024-01-07T01:13:41;11.48;;;8.98;;
48629;SDS011;34426;52.180;4.462;2024-01-07T01:16:16;11.25;;;9.48;;
48629;SDS011;34426;52.180;4.462;2024-01-07T01:18:56;10.85;;;8.60;;
48629;SDS011;34426;52.180;4.462;2024-01-07T01:21:30;11.25;;;9.23;;
48629;SDS011;34426;52.180;4.462;2024-01-07T01:24:08;16.33;;;9.00;;
48629;SDS011;34426;52.180;4.462;2024-01-07T01:26:37;12.10;;;9.88;;
48629;SDS011;34426;52.180;4.462;2024-01-07T01:29:12;9.77;;;8.75;;
48629;SDS011;34426;52.180;4.462;2024-01-07T01:31:45;11.20;;;9.65;;
48629;SDS011;34426;52.180;4.462;2024-01-07T01:34:23;13.60;;;10.15;;
48629;SDS011;34426;52.180;4.462;2024-01-07T01:36:58;15.80;;;10.93;;
48629;SDS011;34426;52.180;4.462;2024-01-07T01:39:34;12.65;;;10.52;;
48629;SDS011;34426;52.180;4.462;2024-01-07T01:42:06;12.35;;;10.55;;
48629;SDS011;34426;52.180;4.462;2024-01-07T01:47:34;13.68;;;12.18;;
48629;SDS011;34426;52.180;4.462;2024-01-07T01:50:34;13.45;;;11.10;;
48629;SDS011;34426;52.180;4.462;2024-01-07T01:53:17;15.57;;;11.60;;
48629;SDS011;34426;52.180;4.462;2024-01-07T01:55:46;16.20;;;11.95;;
48629;SDS011;34426;52.180;4.462;2024-01-07T01:58:40;13.90;;;11.48;;
48629;SDS011;34426;52.180;4.462;2024-01-07T02:01:18;17.25;;;12.70;;
48629;SDS011;34426;52.180;4.462;2024-01-07T02:03:46;14.80;;;12.43;;
48629;SDS011;34426;52.180;4.462;2024-01-07T02:06:14;15.45;;;12.57;;
48629;SDS011;34426;52.180;4.462;2024-01-07T02:08:40;15.68;;;12.70;;
48629;SDS011;34426;52.180;4.462;2024-01-07T02:11:16;16.73;;;13.35;;
48629;SDS011;34426;52.180;4.462;2024-01-07T02:13:42;16.05;;;12.63;;
48629;SDS011;34426;52.180;4.462;2024-01-07T02:16:08;15.55;;;12.45;;
48629;SDS011;34426;52.180;4.462;2024-01-07T02:18:34;15.70;;;12.73;;
48629;SDS011;34426;52.180;4.462;2024-01-07T02:21:00;13.85;;;11.38;;
48629;SDS011;34426;52.180;4.462;2024-01-07T02:23:28;14.60;;;12.00;;
48629;SDS011;34426;52.180;4.462;2024-01-07T02:25:55;13.68;;;11.50;;
48629;SDS011;34426;52.180;4.462;2024-01-07T02:28:20;13.95;;;11.25;;
48629;SDS011;34426;52.180;4.462;2024-01-07T02:30:47;15.82;;;11.82;;
48629;SDS011;34426;52.180;4.462;2024-01-07T02:33:13;13.13;;;11.18;;
48629;SDS011;34426;52.180;4.462;2024-01-07T02:35:39;15.00;;;12.95;;
48629;SDS011;34426;52.180;4.462;2024-01-07T02:38:04;17.17;;;12.07;;
48629;SDS011;34426;52.180;4.462;2024-01-07T02:40:30;15.40;;;12.07;;
48629;SDS011;34426;52.180;4.462;2024-01-07T02:42:57;15.40;;;12.45;;
48629;SDS011;34426;52.180;4.462;2024-01-07T02:45:22;13.45;;;11.63;;
48629;SDS011;34426;52.180;4.462;2024-01-07T02:47:50;15.85;;;12.15;;
48629;SDS011;34426;52.180;4.462;2024-01-07T02:50:16;14.23;;;11.95;;
48629;SDS011;34426;52.180;4.462;2024-01-07T02:52:49;16.33;;;11.82;;
48629;SDS011;34426;52.180;4.462;2024-01-07T02:55:15;13.15;;;11.70;;
48629;SDS011;34426;52.180;4.462;2024-01-07T02:57:41;14.65;;;12.23;;
48629;SDS011;34426;52.180;4.462;2024-01-07T03:00:08;12.77;;;10.60;;
48629;SDS011;34426;52.180;4.462;2024-01-07T03:02:35;14.15;;;11.48;;
48629;SDS011;34426;52.180;4.462;2024-01-07T03:05:00;15.55;;;11.90;;
48629;SDS011;34426;52.180;4.462;2024-01-07T03:07:26;13.55;;;11.55;;
48629;SDS011;34426;52.180;4.462;2024-01-07T03:09:51;16.60;;;11.60;;
48629;SDS011;34426;52.180;4.462;2024-01-07T03:12:17;14.48;;;11.82;;
48629;SDS011;34426;52.180;4.462;2024-01-07T03:14:46;16.02;;;11.85;;
48629;SDS011;34426;52.180;4.462;2024-01-07T03:17:17;14.65;;;11.48;;
48629;SDS011;34426;52.180;4.462;2024-01-07T03:19:43;15.32;;;11.95;;
48629;SDS011;34426;52.180;4.462;2024-01-07T03:22:08;17.92;;;11.80;;
48629;SDS011;34426;52.180;4.462;2024-01-07T03:24:34;14.65;;;12.05;;
48629;SDS011;34426;52.180;4.462;2024-01-07T03:27:00;13.32;;;10.95;;
48629;SDS011;34426;52.180;4.462;2024-01-07T03:29:26;13.73;;;11.43;;
48629;SDS011;34426;52.180;4.462;2024-01-07T03:31:52;15.98;;;11.50;;
48629;SDS011;34426;52.180;4.462;2024-01-07T03:34:20;12.77;;;10.73;;
48629;SDS011;34426;52.180;4.462;2024-01-07T03:36:46;12.90;;;10.85;;
48629;SDS011;34426;52.180;4.462;2024-01-07T03:39:12;14.45;;;11.45;;
48629;SDS011;34426;52.180;4.462;2024-01-07T03:41:38;12.85;;;10.55;;
48629;SDS011;34426;52.180;4.462;2024-01-07T03:44:04;12.52;;;10.65;;
48629;SDS011;34426;52.180;4.462;2024-01-07T03:46:38;12.73;;;11.15;;
48629;SDS011;34426;52.180;4.462;2024-01-07T03:49:04;18.40;;;11.40;;
48629;SDS011;34426;52.180;4.462;2024-01-07T03:51:31;16.13;;;10.82;;
48629;SDS011;34426;52.180;4.462;2024-01-07T03:53:56;13.55;;;11.35;;
48629;SDS011;34426;52.180;4.462;2024-01-07T03:56:23;13.23;;;11.07;;
48629;SDS011;34426;52.180;4.462;2024-01-07T03:58:48;14.15;;;11.30;;
48629;SDS011;34426;52.180;4.462;2024-01-07T04:01:15;15.13;;;11.45;;
48629;SDS011;34426;52.180;4.462;2024-01-07T04:03:41;14.43;;;11.30;;
48629;SDS011;34426;52.180;4.462;2024-01-07T04:06:07;14.15;;;11.13;;
48629;SDS011;34426;52.180;4.462;2024-01-07T04:08:34;13.55;;;10.82;;
48629;SDS011;34426;52.180;4.462;2024-01-07T04:11:02;13.77;;;10.93;;
48629;SDS011;34426;52.180;4.462;2024-01-07T04:13:28;12.23;;;10.50;;
48629;SDS011;34426;52.180;4.462;2024-01-07T04:15:54;12.02;;;9.98;;
48629;SDS011;34426;52.180;4.462;2024-01-07T04:18:22;9.95;;;8.80;;
48629;SDS011;34426;52.180;4.462;2024-01-07T04:20:47;11.20;;;8.63;;
48629;SDS011;34426;52.180;4.462;2024-01-07T04:23:13;12.23;;;9.30;;
48629;SDS011;34426;52.180;4.462;2024-01-07T04:25:40;13.98;;;9.65;;
48629;SDS011;34426;52.180;4.462;2024-01-07T04:28:05;12.38;;;9.32;;
48629;SDS011;34426;52.180;4.462;2024-01-07T04:30:31;13.73;;;10.23;;
48629;SDS011;34426;52.180;4.462;2024-01-07T04:32:56;12.50;;;9.43;;
48629;SDS011;34426;52.180;4.462;2024-01-07T04:35:22;13.35;;;9.95;;
48629;SDS011;34426;52.180;4.462;2024-01-07T04:37:48;12.00;;;9.65;;
48629;SDS011;34426;52.180;4.462;2024-01-07T04:40:13;10.93;;;9.70;;
48629;SDS011;34426;52.180;4.462;2024-01-07T04:42:40;12.70;;;10.43;;
48629;SDS011;34426;52.180;4.462;2024-01-07T04:45:11;10.98;;;9.55;;
48629;SDS011;34426;52.180;4.462;2024-01-07T04:47:41;13.65;;;10.68;;
48629;SDS011;34426;52.180;4.462;2024-01-07T04:50:06;11.13;;;9.85;;
48629;SDS011;34426;52.180;4.462;2024-01-07T04:52:35;14.00;;;10.18;;
48629;SDS011;34426;52.180;4.462;2024-01-07T04:55:01;12.98;;;9.40;;
48629;SDS011;34426;52.180;4.462;2024-01-07T04:57:33;10.48;;;9.30;;
48629;SDS011;34426;52.180;4.462;2024-01-07T05:00:10;10.50;;;9.03;;
48629;SDS011;34426;52.180;4.462;2024-01-07T05:02:38;12.27;;;10.07;;
48629;SDS011;34426;52.180;4.462;2024-01-07T05:05:07;11.98;;;9.52;;
48629;SDS011;34426;52.180;4.462;2024-01-07T05:07:34;10.00;;;8.82;;
48629;SDS011;34426;52.180;4.462;2024-01-07T05:10:11;10.82;;;9.73;;
48629;SDS011;34426;52.180;4.462;2024-01-07T05:12:38;12.65;;;10.27;;
48629;SDS011;34426;52.180;4.462;2024-01-07T05:15:06;12.35;;;10.85;;
48629;SDS011;34426;52.180;4.462;2024-01-07T05:17:33;13.57;;;10.63;;
48629;SDS011;34426;52.180;4.462;2024-01-07T05:19:58;12.48;;;10.15;;
48629;SDS011;34426;52.180;4.462;2024-01-07T05:22:24;12.10;;;10.57;;
48629;SDS011;34426;52.180;4.462;2024-01-07T05:24:49;13.30;;;10.88;;
48629;SDS011;34426;52.180;4.462;2024-01-07T05:27:15;14.02;;;10.60;;
48629;SDS011;34426;52.180;4.462;2024-01-07T05:29:50;13.70;;;11.02;;
48629;SDS011;34426;52.180;4.462;2024-01-07T05:32:20;13.75;;;10.52;;
48629;SDS011;34426;52.180;4.462;2024-01-07T05:34:46;13.18;;;10.23;;
48629;SDS011;34426;52.180;4.462;2024-01-07T05:37:11;12.85;;;10.30;;
48629;SDS011;34426;52.180;4.462;2024-01-07T05:39:37;17.10;;;11.45;;
48629;SDS011;34426;52.180;4.462;2024-01-07T05:42:03;13.38;;;10.50;;
48629;SDS011;34426;52.180;4.462;2024-01-07T05:44:28;12.50;;;11.20;;
48629;SDS011;34426;52.180;4.462;2024-01-07T05:46:56;12.63;;;10.52;;
48629;SDS011;34426;52.180;4.462;2024-01-07T05:49:26;13.93;;;10.55;;
48629;SDS011;34426;52.180;4.462;2024-01-07T05:52:01;13.13;;;10.68;;
48629;SDS011;34426;52.180;4.462;2024-01-07T05:54:34;13.85;;;10.48;;
48629;SDS011;34426;52.180;4.462;2024-01-07T05:57:05;13.50;;;12.02;;
48629;SDS011;34426;52.180;4.462;2024-01-07T05:59:39;15.23;;;11.80;;
48629;SDS011;34426;52.180;4.462;2024-01-07T06:02:10;14.93;;;10.88;;
48629;SDS011;34426;52.180;4.462;2024-01-07T06:04:57;13.25;;;11.68;;
48629;SDS011;34426;52.180;4.462;2024-01-07T06:07:35;14.23;;;11.15;;
48629;SDS011;34426;52.180;4.462;2024-01-07T06:10:10;15.05;;;11.80;;
48629;SDS011;34426;52.180;4.462;2024-01-07T06:12:39;17.20;;;11.85;;
48629;SDS011;34426;52.180;4.462;2024-01-07T06:17:48;14.93;;;11.60;;
48629;SDS011;34426;52.180;4.462;2024-01-07T06:20:42;18.38;;;12.85;;
48629;SDS011;34426;52.180;4.462;2024-01-07T06:23:12;15.93;;;12.05;;
48629;SDS011;34426;52.180;4.462;2024-01-07T06:25:40;15.30;;;12.90;;
48629;SDS011;34426;52.180;4.462;2024-01-07T06:28:08;16.25;;;13.50;;
48629;SDS011;34426;52.180;4.462;2024-01-07T06:30:37;16.38;;;11.80;;
48629;SDS011;34426;52.180;4.462;2024-01-07T06:33:21;19.15;;;13.65;;
48629;SDS011;34426;52.180;4.462;2024-01-07T06:35:56;17.23;;;14.75;;
48629;SDS011;34426;52.180;4.462;2024-01-07T06:38:24;22.75;;;14.30;;
48629;SDS011;34426;52.180;4.462;2024-01-07T06:40:50;18.02;;;15.13;;
48629;SDS011;34426;52.180;4.462;2024-01-07T06:45:55;21.30;;;15.90;;
48629;SDS011;34426;52.180;4.462;2024-01-07T06:48:21;18.00;;;14.75;;
48629;SDS011;34426;52.180;4.462;2024-01-07T06:50:46;21.27;;;15.13;;
48629;SDS011;34426;52.180;4.462;2024-01-07T06:53:13;19.40;;;15.57;;
48629;SDS011;34426;52.180;4.462;2024-01-07T06:55:39;19.00;;;15.75;;
48629;SDS011;34426;52.180;4.462;2024-01-07T06:58:05;21.05;;;14.82;;
48629;SDS011;34426;52.180;4.462;2024-01-07T07:00:30;20.30;;;14.38;;
48629;SDS011;34426;52.180;4.462;2024-01-07T07:03:03;18.20;;;14.88;;
48629;SDS011;34426;52.180;4.462;2024-01-07T07:05:32;19.83;;;13.75;;
48629;SDS011;34426;52.180;4.462;2024-01-07T07:08:05;17.65;;;14.07;;
48629;SDS011;34426;52.180;4.462;2024-01-07T07:10:36;15.45;;;12.50;;
48629;SDS011;34426;52.180;4.462;2024-01-07T07:13:01;18.00;;;12.18;;
48629;SDS011;34426;52.180;4.462;2024-01-07T07:15:27;15.27;;;11.88;;
48629;SDS011;34426;52.180;4.462;2024-01-07T07:17:53;16.23;;;12.30;;
48629;SDS011;34426;52.180;4.462;2024-01-07T07:20:18;16.77;;;11.73;;
48629;SDS011;34426;52.180;4.462;2024-01-07T07:22:45;13.95;;;9.85;;
48629;SDS011;34426;52.180;4.462;2024-01-07T07:25:11;9.68;;;8.68;;
48629;SDS011;34426;52.180;4.462;2024-01-07T07:27:44;14.77;;;10.70;;
48629;SDS011;34426;52.180;4.462;2024-01-07T07:30:21;12.52;;;10.00;;
48629;SDS011;34426;52.180;4.462;2024-01-07T07:33:13;16.08;;;9.25;;
48629;SDS011;34426;52.180;4.462;2024-01-07T07:35:55;13.10;;;9.43;;
48629;SDS011;34426;52.180;4.462;2024-01-07T07:38:26;12.63;;;9.32;;
48629;SDS011;34426;52.180;4.462;2024-01-07T07:40:53;13.63;;;8.77;;
48629;SDS011;34426;52.180;4.462;2024-01-07T07:43:21;10.82;;;8.75;;
48629;SDS011;34426;52.180;4.462;2024-01-07T07:45:52;12.75;;;9.00;;
48629;SDS011;34426;52.180;4.462;2024-01-07T07:48:37;12.30;;;8.75;;
48629;SDS011;34426;52.180;4.462;2024-01-07T07:51:08;15.93;;;8.88;;
48629;SDS011;34426;52.180;4.462;2024-01-07T07:53:39;11.93;;;9.02;;
48629;SDS011;34426;52.180;4.462;2024-01-07T07:56:12;12.85;;;8.57;;
48629;SDS011;34426;52.180;4.462;2024-01-07T07:58:49;11.15;;;8.25;;
48629;SDS011;34426;52.180;4.462;2024-01-07T08:01:30;12.50;;;8.25;;
48629;SDS011;34426;52.180;4.462;2024-01-07T08:04:06;10.18;;;8.05;;
48629;SDS011;34426;52.180;4.462;2024-01-07T08:06:35;12.18;;;8.98;;
48629;SDS011;34426;52.180;4.462;2024-01-07T08:09:13;11.95;;;8.30;;
48629;SDS011;34426;52.180;4.462;2024-01-07T08:11:39;14.48;;;8.77;;
48629;SDS011;34426;52.180;4.462;2024-01-07T08:20:04;11.52;;;9.07;;
48629;SDS011;34426;52.180;4.462;2024-01-07T08:22:48;10.10;;;7.75;;
48629;SDS011;34426;52.180;4.462;2024-01-07T08:25:17;10.30;;;7.03;;
48629;SDS011;34426;52.180;4.462;2024-01-07T08:27:52;10.23;;;7.43;;
48629;SDS011;34426;52.180;4.462;2024-01-07T08:30:33;11.68;;;7.50;;
48629;SDS011;34426;52.180;4.462;2024-01-07T08:33:19;11.20;;;7.57;;
48629;SDS011;34426;52.180;4.462;2024-01-07T08:36:13;11.25;;;7.45;;
48629;SDS011;34426;52.180;4.462;2024-01-07T08:38:43;10.93;;;6.88;;
48629;SDS011;34426;52.180;4.462;2024-01-07T08:41:18;10.00;;;7.25;;
48629;SDS011;34426;52.180;4.462;2024-01-07T08:44:06;8.40;;;6.70;;
48629;SDS011;34426;52.180;4.462;2024-01-07T08:46:50;13.25;;;7.07;;
48629;SDS011;34426;52.180;4.462;2024-01-07T08:49:17;10.38;;;6.78;;
48629;SDS011;34426;52.180;4.462;2024-01-07T08:51:44;9.82;;;6.82;;
48629;SDS011;34426;52.180;4.462;2024-01-07T08:54:10;11.40;;;6.43;;
48629;SDS011;34426;52.180;4.462;2024-01-07T08:56:35;10.88;;;6.60;;
48629;SDS011;34426;52.180;4.462;2024-01-07T08:59:01;10.02;;;6.15;;
48629;SDS011;34426;52.180;4.462;2024-01-07T09:01:36;10.18;;;7.20;;
48629;SDS011;34426;52.180;4.462;2024-01-07T09:04:23;11.27;;;6.25;;
48629;SDS011;34426;52.180;4.462;2024-01-07T09:07:05;10.05;;;6.32;;
48629;SDS011;34426;52.180;4.462;2024-01-07T09:09:46;8.90;;;6.75;;
48629;SDS011;34426;52.180;4.462;2024-01-07T09:12:17;7.50;;;6.03;;
48629;SDS011;34426;52.180;4.462;2024-01-07T09:14:54;9.45;;;6.07;;
48629;SDS011;34426;52.180;4.462;2024-01-07T09:17:34;11.35;;;6.45;;
48629;SDS011;34426;52.180;4.462;2024-01-07T09:20:09;8.63;;;6.38;;
48629;SDS011;34426;52.180;4.462;2024-01-07T09:22:45;11.00;;;6.85;;
48629;SDS011;34426;52.180;4.462;2024-01-07T09:25:13;11.88;;;6.40;;
48629;SDS011;34426;52.180;4.462;2024-01-07T09:27:39;10.35;;;6.60;;
48629;SDS011;34426;52.180;4.462;2024-01-07T09:30:07;9.98;;;6.60;;
48629;SDS011;34426;52.180;4.462;2024-01-07T09:32:38;8.90;;;6.50;;
48629;SDS011;34426;52.180;4.462;2024-01-07T09:35:11;12.45;;;6.65;;
48629;SDS011;34426;52.180;4.462;2024-01-07T09:40:23;10.13;;;6.13;;
48629;SDS011;34426;52.180;4.462;2024-01-07T09:43:10;10.52;;;7.05;;
48629;SDS011;34426;52.180;4.462;2024-01-07T09:45:39;12.43;;;6.35;;
48629;SDS011;34426;52.180;4.462;2024-01-07T09:48:15;8.82;;;5.45;;
48629;SDS011;34426;52.180;4.462;2024-01-07T09:50:49;9.85;;;6.13;;
48629;SDS011;34426;52.180;4.462;2024-01-07T09:53:23;10.80;;;6.03;;
48629;SDS011;34426;52.180;4.462;2024-01-07T09:55:55;7.97;;;6.07;;
48629;SDS011;34426;52.180;4.462;2024-01-07T09:58:37;8.20;;;5.57;;
48629;SDS011;34426;52.180;4.462;2024-01-07T10:01:03;9.00;;;6.05;;
48629;SDS011;34426;52.180;4.462;2024-01-07T10:03:33;10.65;;;5.35;;
48629;SDS011;34426;52.180;4.462;2024-01-07T10:06:09;9.20;;;5.63;;
48629;SDS011;34426;52.180;4.462;2024-01-07T10:08:35;7.95;;;5.20;;
48629;SDS011;34426;52.180;4.462;2024-01-07T10:11:10;7.85;;;4.93;;
48629;SDS011;34426;52.180;4.462;2024-01-07T10:13:38;8.50;;;5.57;;
48629;SDS011;34426;52.180;4.462;2024-01-07T10:16:07;8.88;;;5.65;;
48629;SDS011;34426;52.180;4.462;2024-01-07T10:18:32;8.52;;;5.53;;
48629;SDS011;34426;52.180;4.462;2024-01-07T10:21:01;7.60;;;5.50;;
48629;SDS011;34426;52.180;4.462;2024-01-07T10:23:33;12.45;;;5.63;;
48629;SDS011;34426;52.180;4.462;2024-01-07T10:25:58;10.85;;;5.75;;
48629;SDS011;34426;52.180;4.462;2024-01-07T10:28:24;12.38;;;6.40;;
48629;SDS011;34426;52.180;4.462;2024-01-07T10:30:50;9.50;;;5.63;;
48629;SDS011;34426;52.180;4.462;2024-01-07T10:33:20;9.48;;;6.03;;
48629;SDS011;34426;52.180;4.462;2024-01-07T10:35:56;10.60;;;5.35;;
48629;SDS011;34426;52.180;4.462;2024-01-07T10:38:30;10.15;;;4.80;;
48629;SDS011;34426;52.180;4.462;2024-01-07T10:43:40;8.10;;;4.57;;
48629;SDS011;34426;52.180;4.462;2024-01-07T10:46:14;7.78;;;4.18;;
48629;SDS011;34426;52.180;4.462;2024-01-07T10:48:53;6.00;;;3.97;;
48629;SDS011;34426;52.180;4.462;2024-01-07T10:51:20;7.97;;;4.55;;
48629;SDS011;34426;52.180;4.462;2024-01-07T10:53:47;8.80;;;4.53;;
48629;SDS011;34426;52.180;4.462;2024-01-07T10:59:31;7.95;;;4.38;;
48629;SDS011;34426;52.180;4.462;2024-01-07T11:05:15;5.68;;;3.90;;
48629;SDS011;34426;52.180;4.462;2024-01-07T11:08:22;5.10;;;3.35;;
48629;SDS011;34426;52.180;4.462;2024-01-07T11:11:03;8.73;;;3.58;;
48629;SDS011;34426;52.180;4.462;2024-01-07T11:13:31;5.30;;;3.75;;
48629;SDS011;34426;52.180;4.462;2024-01-07T11:16:02;3.97;;;3.08;;
48629;SDS011;34426;52.180;4.462;2024-01-07T11:18:28;4.45;;;3.22;;
48629;SDS011;34426;52.180;4.462;2024-01-07T11:24:06;6.57;;;3.30;;
48629;SDS011;34426;52.180;4.462;2024-01-07T11:26:42;6.88;;;3.22;;
48629;SDS011;34426;52.180;4.462;2024-01-07T11:29:11;5.18;;;3.13;;
48629;SDS011;34426;52.180;4.462;2024-01-07T11:31:44;4.45;;;3.33;;
48629;SDS011;34426;52.180;4.462;2024-01-07T11:34:10;5.97;;;3.65;;
48629;SDS011;34426;52.180;4.462;2024-01-07T11:39:30;6.45;;;3.13;;
48629;SDS011;34426;52.180;4.462;2024-01-07T11:41:59;6.25;;;3.10;;
48629;SDS011;34426;52.180;4.462;2024-01-07T11:44:26;6.40;;;2.92;;
48629;SDS011;34426;52.180;4.462;2024-01-07T11:49:34;6.03;;;3.13;;
48629;SDS011;34426;52.180;4.462;2024-01-07T11:52:00;4.68;;;2.83;;
48629;SDS011;34426;52.180;4.462;2024-01-07T11:54:36;4.80;;;3.03;;
48629;SDS011;34426;52.180;4.462;2024-01-07T11:57:22;5.25;;;2.85;;
48629;SDS011;34426;52.180;4.462;2024-01-07T11:59:48;5.15;;;2.88;;
48629;SDS011;34426;52.180;4.462;2024-01-07T12:02:24;5.32;;;3.10;;
48629;SDS011;34426;52.180;4.462;2024-01-07T12:05:00;6.00;;;3.25;;
48629;SDS011;34426;52.180;4.462;2024-01-07T12:07:32;5.55;;;3.10;;
48629;SDS011;34426;52.180;4.462;2024-01-07T12:10:00;5.05;;;3.28;;
48629;SDS011;34426;52.180;4.462;2024-01-07T12:12:30;4.82;;;3.05;;
48629;SDS011;34426;52.180;4.462;2024-01-07T12:15:08;6.47;;;3.88;;
48629;SDS011;34426;52.180;4.462;2024-01-07T12:17:38;6.15;;;3.05;;
48629;SDS011;34426;52.180;4.462;2024-01-07T12:20:08;7.50;;;2.90;;
48629;SDS011;34426;52.180;4.462;2024-01-07T12:23:06;4.78;;;2.55;;
48629;SDS011;34426;52.180;4.462;2024-01-07T12:25:45;3.95;;;2.58;;
48629;SDS011;34426;52.180;4.462;2024-01-07T12:28:18;4.85;;;2.88;;
48629;SDS011;34426;52.180;4.462;2024-01-07T12:30:47;3.50;;;2.53;;
48629;SDS011;34426;52.180;4.462;2024-01-07T12:35:59;4.43;;;2.53;;
48629;SDS011;34426;52.180;4.462;2024-01-07T12:38:30;3.17;;;2.42;;
48629;SDS011;34426;52.180;4.462;2024-01-07T12:44:18;2.90;;;1.83;;
48629;SDS011;34426;52.180;4.462;2024-01-07T12:46:59;4.38;;;2.08;;
48629;SDS011;34426;52.180;4.462;2024-01-07T12:52:10;3.08;;;1.98;;
48629;SDS011;34426;52.180;4.462;2024-01-07T12:54:39;3.85;;;1.90;;
48629;SDS011;34426;52.180;4.462;2024-01-07T12:57:11;2.88;;;1.80;;
48629;SDS011;34426;52.180;4.462;2024-01-07T12:59:36;4.87;;;2.13;;
48629;SDS011;34426;52.180;4.462;2024-01-07T13:02:02;4.20;;;2.10;;
48629;SDS011;34426;52.180;4.462;2024-01-07T13:04:31;3.92;;;1.83;;
48629;SDS011;34426;52.180;4.462;2024-01-07T13:06:58;3.22;;;1.90;;
48629;SDS011;34426;52.180;4.462;2024-01-07T13:09:24;4.07;;;1.83;;
48629;SDS011;34426;52.180;4.462;2024-01-07T13:14:42;1.52;;;1.42;;
48629;SDS011;34426;52.180;4.462;2024-01-07T13:17:09;3.05;;;1.75;;
48629;SDS011;34426;52.180;4.462;2024-01-07T13:19:38;3.30;;;1.80;;
48629;SDS011;34426;52.180;4.462;2024-01-07T13:22:21;3.70;;;2.22;;
48629;SDS011;34426;52.180;4.462;2024-01-07T13:24:50;2.58;;;1.60;;
48629;SDS011;34426;52.180;4.462;2024-01-07T13:27:15;3.40;;;1.90;;
48629;SDS011;34426;52.180;4.462;2024-01-07T13:29:41;5.68;;;1.75;;
48629;SDS011;34426;52.180;4.462;2024-01-07T13:32:07;3.30;;;1.73;;
48629;SDS011;34426;52.180;4.462;2024-01-07T13:34:32;2.47;;;1.55;;
48629;SDS011;34426;52.180;4.462;2024-01-07T13:37:00;3.40;;;1.90;;
48629;SDS011;34426;52.180;4.462;2024-01-07T13:39:28;2.72;;;1.80;;
48629;SDS011;34426;52.180;4.462;2024-01-07T13:41:56;3.33;;;1.70;;
48629;SDS011;34426;52.180;4.462;2024-01-07T13:44:22;2.58;;;1.70;;
48629;SDS011;34426;52.180;4.462;2024-01-07T13:46:48;4.97;;;1.52;;
48629;SDS011;34426;52.180;4.462;2024-01-07T13:49:16;2.40;;;1.85;;
48629;SDS011;34426;52.180;4.462;2024-01-07T13:51:52;4.03;;;2.33;;
48629;SDS011;34426;52.180;4.462;2024-01-07T13:54:18;2.05;;;1.80;;
48629;SDS011;34426;52.180;4.462;2024-01-07T13:59:48;3.30;;;1.67;;
48629;SDS011;34426;52.180;4.462;2024-01-07T14:02:50;4.63;;;2.25;;
48629;SDS011;34426;52.180;4.462;2024-01-07T14:05:17;2.85;;;1.90;;
48629;SDS011;34426;52.180;4.462;2024-01-07T14:07:42;8.02;;;2.30;;
48629;SDS011;34426;52.180;4.462;2024-01-07T14:10:08;4.20;;;1.98;;
48629;SDS011;34426;52.180;4.462;2024-01-07T14:12:46;3.83;;;1.70;;
48629;SDS011;34426;52.180;4.462;2024-01-07T14:17:55;2.50;;;1.55;;
48629;SDS011;34426;52.180;4.462;2024-01-07T14:20:21;2.90;;;1.70;;
48629;SDS011;34426;52.180;4.462;2024-01-07T14:22:55;1.90;;;1.70;;
48629;SDS011;34426;52.180;4.462;2024-01-07T14:25:40;6.97;;;3.45;;
48629;SDS011;34426;52.180;4.462;2024-01-07T14:28:32;186.70;;;65.97;;
48629;SDS011;34426;52.180;4.462;2024-01-07T14:31:01;129.40;;;50.00;;
48629;SDS011;34426;52.180;4.462;2024-01-07T14:36:23;112.57;;;47.50;;
48629;SDS011;34426;52.180;4.462;2024-01-07T14:38:52;23.25;;;15.68;;
48629;SDS011;34426;52.180;4.462;2024-01-07T14:41:18;9.48;;;6.13;;
48629;SDS011;34426;52.180;4.462;2024-01-07T14:43:51;14.52;;;8.25;;
48629;SDS011;34426;52.180;4.462;2024-01-07T14:46:19;6.55;;;3.38;;
48629;SDS011;34426;52.180;4.462;2024-01-07T14:48:48;6.22;;;4.00;;
48629;SDS011;34426;52.180;4.462;2024-01-07T14:51:17;3.53;;;2.63;;
48629;SDS011;34426;52.180;4.462;2024-01-07T14:56:36;11.40;;;7.53;;
48629;SDS011;34426;52.180;4.462;2024-01-07T14:59:04;7.20;;;4.32;;
48629;SDS011;34426;52.180;4.462;2024-01-07T15:01:30;5.20;;;3.45;;
48629;SDS011;34426;52.180;4.462;2024-01-07T15:04:05;7.55;;;4.00;;
48629;SDS011;34426;52.180;4.462;2024-01-07T15:06:42;6.03;;;3.50;;
48629;SDS011;34426;52.180;4.462;2024-01-07T15:09:08;7.68;;;2.55;;
48629;SDS011;34426;52.180;4.462;2024-01-07T15:11:37;7.25;;;2.28;;
48629;SDS011;34426;52.180;4.462;2024-01-07T15:14:13;2.78;;;2.00;;
48629;SDS011;34426;52.180;4.462;2024-01-07T15:16:42;4.60;;;2.15;;
48629;SDS011;34426;52.180;4.462;2024-01-07T15:19:08;6.35;;;2.28;;
48629;SDS011;34426;52.180;4.462;2024-01-07T15:21:39;5.90;;;2.10;;
48629;SDS011;34426;52.180;4.462;2024-01-07T15:24:10;7.22;;;2.00;;
48629;SDS011;34426;52.180;4.462;2024-01-07T15:26:39;4.57;;;2.13;;
48629;SDS011;34426;52.180;4.462;2024-01-07T15:29:18;2.78;;;1.80;;
48629;SDS011;34426;52.180;4.462;2024-01-07T15:31:48;3.88;;;2.17;;
48629;SDS011;34426;52.180;4.462;2024-01-07T15:34:14;14.32;;;3.75;;
48629;SDS011;34426;52.180;4.462;2024-01-07T15:36:45;3.60;;;2.33;;
48629;SDS011;34426;52.180;4.462;2024-01-07T15:40:00;9.40;;;4.03;;
48629;SDS011;34426;52.180;4.462;2024-01-07T15:42:59;5.63;;;2.97;;
48629;SDS011;34426;52.180;4.462;2024-01-07T15:45:33;3.83;;;2.00;;
48629;SDS011;34426;52.180;4.462;2024-01-07T15:48:08;4.03;;;2.22;;
48629;SDS011;34426;52.180;4.462;2024-01-07T15:51:17;2.33;;;1.95;;
48629;SDS011;34426;52.180;4.462;2024-01-07T15:55:20;9.50;;;3.08;;
48629;SDS011;34426;52.180;4.462;2024-01-07T15:56:39;3.67;;;2.42;;
48629;SDS011;34426;52.180;4.462;2024-01-07T15:59:07;11.82;;;4.82;;
48629;SDS011;34426;52.180;4.462;2024-01-07T16:05:10;3.58;;;3.13;;